sensor_id;sensor_type;location;lat;lon;timestamp;P1;durP1;ratioP1;P2;durP2;ratioP2
23716;SDS011;22094;52.130;5.598;2022-10-16T00:01:06;9.88;;;4.40;;
23716;SDS011;22094;52.130;5.598;2022-10-16T00:03:36;8.63;;;4.00;;
23716;SDS011;22094;52.130;5.598;2022-10-16T00:06:02;9.23;;;4.18;;
23716;SDS011;22094;52.130;5.598;2022-10-16T00:08:29;9.35;;;4.10;;
23716;SDS011;22094;52.130;5.598;2022-10-16T00:11:01;10.10;;;4.32;;
23716;SDS011;22094;52.130;5.598;2022-10-16T00:13:39;8.35;;;3.88;;
23716;SDS011;22094;52.130;5.598;2022-10-16T00:16:06;8.40;;;4.25;;
23716;SDS011;22094;52.130;5.598;2022-10-16T00:18:32;7.22;;;3.67;;
23716;SDS011;22094;52.130;5.598;2022-10-16T00:21:01;11.27;;;4.45;;
23716;SDS011;22094;52.130;5.598;2022-10-16T00:23:30;9.32;;;4.30;;
23716;SDS011;22094;52.130;5.598;2022-10-16T00:26:01;8.65;;;4.28;;
23716;SDS011;22094;52.130;5.598;2022-10-16T00:28:28;12.15;;;4.18;;
23716;SDS011;22094;52.130;5.598;2022-10-16T00:30:54;10.32;;;4.32;;
23716;SDS011;22094;52.130;5.598;2022-10-16T00:33:20;8.60;;;4.00;;
23716;SDS011;22094;52.130;5.598;2022-10-16T00:35:46;10.75;;;4.47;;
23716;SDS011;22094;52.130;5.598;2022-10-16T00:38:12;8.30;;;4.38;;
23716;SDS011;22094;52.130;5.598;2022-10-16T00:40:38;6.35;;;3.83;;
23716;SDS011;22094;52.130;5.598;2022-10-16T00:43:14;7.53;;;3.97;;
23716;SDS011;22094;52.130;5.598;2022-10-16T00:45:59;8.15;;;4.00;;
23716;SDS011;22094;52.130;5.598;2022-10-16T00:48:26;7.82;;;4.47;;
23716;SDS011;22094;52.130;5.598;2022-10-16T00:50:52;7.32;;;3.80;;
23716;SDS011;22094;52.130;5.598;2022-10-16T00:53:18;5.20;;;3.38;;
23716;SDS011;22094;52.130;5.598;2022-10-16T00:55:44;7.40;;;3.88;;
23716;SDS011;22094;52.130;5.598;2022-10-16T00:58:10;7.22;;;3.42;;
23716;SDS011;22094;52.130;5.598;2022-10-16T01:00:36;5.95;;;3.40;;
23716;SDS011;22094;52.130;5.598;2022-10-16T01:03:02;5.97;;;3.55;;
23716;SDS011;22094;52.130;5.598;2022-10-16T01:05:48;5.28;;;3.03;;
23716;SDS011;22094;52.130;5.598;2022-10-16T01:08:21;6.22;;;3.47;;
23716;SDS011;22094;52.130;5.598;2022-10-16T01:10:59;6.38;;;2.90;;
23716;SDS011;22094;52.130;5.598;2022-10-16T01:13:41;7.13;;;3.00;;
23716;SDS011;22094;52.130;5.598;2022-10-16T01:18:57;7.03;;;3.35;;
23716;SDS011;22094;52.130;5.598;2022-10-16T01:21:35;7.05;;;3.13;;
23716;SDS011;22094;52.130;5.598;2022-10-16T01:29:41;6.15;;;2.92;;
23716;SDS011;22094;52.130;5.598;2022-10-16T01:34:47;3.97;;;2.80;;
23716;SDS011;22094;52.130;5.598;2022-10-16T01:37:22;5.95;;;3.08;;
23716;SDS011;22094;52.130;5.598;2022-10-16T01:39:58;8.32;;;3.45;;
23716;SDS011;22094;52.130;5.598;2022-10-16T01:42:27;7.03;;;3.20;;
23716;SDS011;22094;52.130;5.598;2022-10-16T01:44:59;7.03;;;3.20;;
23716;SDS011;22094;52.130;5.598;2022-10-16T01:47:26;6.70;;;3.30;;
23716;SDS011;22094;52.130;5.598;2022-10-16T01:49:54;5.50;;;3.20;;
23716;SDS011;22094;52.130;5.598;2022-10-16T01:52:23;4.47;;;2.83;;
23716;SDS011;22094;52.130;5.598;2022-10-16T01:54:52;4.28;;;3.10;;
23716;SDS011;22094;52.130;5.598;2022-10-16T01:57:20;5.35;;;3.53;;
23716;SDS011;22094;52.130;5.598;2022-10-16T01:59:50;9.02;;;3.20;;
23716;SDS011;22094;52.130;5.598;2022-10-16T02:02:18;8.80;;;3.65;;
23716;SDS011;22094;52.130;5.598;2022-10-16T02:04:51;6.97;;;3.55;;
23716;SDS011;22094;52.130;5.598;2022-10-16T02:07:22;6.55;;;3.30;;
23716;SDS011;22094;52.130;5.598;2022-10-16T02:09:48;6.95;;;3.60;;
23716;SDS011;22094;52.130;5.598;2022-10-16T02:12:36;7.25;;;3.40;;
23716;SDS011;22094;52.130;5.598;2022-10-16T02:15:02;4.53;;;3.15;;
23716;SDS011;22094;52.130;5.598;2022-10-16T02:17:28;7.28;;;3.25;;
23716;SDS011;22094;52.130;5.598;2022-10-16T02:19:54;5.95;;;3.00;;
23716;SDS011;22094;52.130;5.598;2022-10-16T02:22:22;7.80;;;3.40;;
23716;SDS011;22094;52.130;5.598;2022-10-16T02:24:58;4.53;;;3.47;;
23716;SDS011;22094;52.130;5.598;2022-10-16T02:27:33;7.57;;;3.65;;
23716;SDS011;22094;52.130;5.598;2022-10-16T02:30:27;5.72;;;3.30;;
23716;SDS011;22094;52.130;5.598;2022-10-16T02:33:01;4.95;;;3.45;;
23716;SDS011;22094;52.130;5.598;2022-10-16T02:35:30;4.30;;;3.30;;
23716;SDS011;22094;52.130;5.598;2022-10-16T02:37:56;6.20;;;3.50;;
23716;SDS011;22094;52.130;5.598;2022-10-16T02:40:22;6.03;;;3.95;;
23716;SDS011;22094;52.130;5.598;2022-10-16T02:42:50;4.13;;;3.42;;
23716;SDS011;22094;52.130;5.598;2022-10-16T02:45:17;7.22;;;3.47;;
23716;SDS011;22094;52.130;5.598;2022-10-16T02:47:43;6.60;;;3.70;;
23716;SDS011;22094;52.130;5.598;2022-10-16T02:50:09;4.18;;;3.53;;
23716;SDS011;22094;52.130;5.598;2022-10-16T02:52:34;7.70;;;3.47;;
23716;SDS011;22094;52.130;5.598;2022-10-16T02:55:00;4.07;;;3.47;;
23716;SDS011;22094;52.130;5.598;2022-10-16T02:57:26;6.63;;;3.63;;
23716;SDS011;22094;52.130;5.598;2022-10-16T02:59:52;9.13;;;3.72;;
23716;SDS011;22094;52.130;5.598;2022-10-16T03:02:17;5.50;;;3.70;;
23716;SDS011;22094;52.130;5.598;2022-10-16T03:04:43;7.78;;;3.67;;
23716;SDS011;22094;52.130;5.598;2022-10-16T03:07:09;4.85;;;3.95;;
23716;SDS011;22094;52.130;5.598;2022-10-16T03:09:34;4.47;;;3.63;;
23716;SDS011;22094;52.130;5.598;2022-10-16T03:12:00;6.60;;;3.58;;
23716;SDS011;22094;52.130;5.598;2022-10-16T03:14:26;5.60;;;3.70;;
23716;SDS011;22094;52.130;5.598;2022-10-16T03:16:51;4.15;;;3.50;;
23716;SDS011;22094;52.130;5.598;2022-10-16T03:19:17;6.32;;;3.40;;
23716;SDS011;22094;52.130;5.598;2022-10-16T03:21:43;4.97;;;3.65;;
23716;SDS011;22094;52.130;5.598;2022-10-16T03:24:09;3.72;;;3.42;;
23716;SDS011;22094;52.130;5.598;2022-10-16T03:26:35;5.35;;;3.83;;
23716;SDS011;22094;52.130;5.598;2022-10-16T03:29:01;4.95;;;3.92;;
23716;SDS011;22094;52.130;5.598;2022-10-16T03:31:28;6.38;;;3.75;;
23716;SDS011;22094;52.130;5.598;2022-10-16T03:33:54;6.05;;;3.72;;
23716;SDS011;22094;52.130;5.598;2022-10-16T03:36:19;5.63;;;4.10;;
23716;SDS011;22094;52.130;5.598;2022-10-16T03:38:45;4.68;;;3.60;;
23716;SDS011;22094;52.130;5.598;2022-10-16T03:41:10;5.28;;;3.70;;
23716;SDS011;22094;52.130;5.598;2022-10-16T03:43:36;5.60;;;3.58;;
23716;SDS011;22094;52.130;5.598;2022-10-16T03:46:02;5.57;;;3.80;;
23716;SDS011;22094;52.130;5.598;2022-10-16T03:48:27;5.10;;;3.88;;
23716;SDS011;22094;52.130;5.598;2022-10-16T03:50:53;4.28;;;3.80;;
23716;SDS011;22094;52.130;5.598;2022-10-16T03:53:19;4.00;;;3.60;;
23716;SDS011;22094;52.130;5.598;2022-10-16T03:55:45;7.68;;;3.80;;
23716;SDS011;22094;52.130;5.598;2022-10-16T03:58:11;8.75;;;3.92;;
23716;SDS011;22094;52.130;5.598;2022-10-16T04:00:43;4.65;;;3.90;;
23716;SDS011;22094;52.130;5.598;2022-10-16T04:03:12;8.27;;;3.88;;
23716;SDS011;22094;52.130;5.598;2022-10-16T04:05:38;5.18;;;4.00;;
23716;SDS011;22094;52.130;5.598;2022-10-16T04:08:03;5.97;;;3.92;;
23716;SDS011;22094;52.130;5.598;2022-10-16T04:10:29;4.00;;;3.33;;
23716;SDS011;22094;52.130;5.598;2022-10-16T04:12:55;5.70;;;3.33;;
23716;SDS011;22094;52.130;5.598;2022-10-16T04:15:21;5.13;;;3.95;;
23716;SDS011;22094;52.130;5.598;2022-10-16T04:17:50;7.40;;;3.75;;
23716;SDS011;22094;52.130;5.598;2022-10-16T04:20:16;5.95;;;3.65;;
23716;SDS011;22094;52.130;5.598;2022-10-16T04:22:42;6.07;;;3.95;;
23716;SDS011;22094;52.130;5.598;2022-10-16T04:25:08;6.22;;;3.70;;
23716;SDS011;22094;52.130;5.598;2022-10-16T04:27:33;5.05;;;3.75;;
23716;SDS011;22094;52.130;5.598;2022-10-16T04:29:59;6.00;;;3.78;;
23716;SDS011;22094;52.130;5.598;2022-10-16T04:32:25;4.88;;;3.42;;
23716;SDS011;22094;52.130;5.598;2022-10-16T04:34:52;4.20;;;3.53;;
23716;SDS011;22094;52.130;5.598;2022-10-16T04:37:17;8.15;;;3.83;;
23716;SDS011;22094;52.130;5.598;2022-10-16T04:39:43;5.50;;;3.45;;
23716;SDS011;22094;52.130;5.598;2022-10-16T04:42:09;3.60;;;3.20;;
23716;SDS011;22094;52.130;5.598;2022-10-16T04:44:35;4.65;;;4.10;;
23716;SDS011;22094;52.130;5.598;2022-10-16T04:47:01;4.45;;;3.95;;
23716;SDS011;22094;52.130;5.598;2022-10-16T04:49:26;5.78;;;3.80;;
23716;SDS011;22094;52.130;5.598;2022-10-16T04:51:52;4.70;;;4.05;;
23716;SDS011;22094;52.130;5.598;2022-10-16T04:54:17;7.43;;;3.92;;
23716;SDS011;22094;52.130;5.598;2022-10-16T04:56:43;7.32;;;4.00;;
23716;SDS011;22094;52.130;5.598;2022-10-16T04:59:12;5.82;;;4.45;;
23716;SDS011;22094;52.130;5.598;2022-10-16T05:01:39;5.63;;;3.70;;
23716;SDS011;22094;52.130;5.598;2022-10-16T05:04:05;6.20;;;3.70;;
23716;SDS011;22094;52.130;5.598;2022-10-16T05:06:30;6.38;;;4.10;;
23716;SDS011;22094;52.130;5.598;2022-10-16T05:08:56;6.05;;;3.90;;
23716;SDS011;22094;52.130;5.598;2022-10-16T05:11:21;4.85;;;3.72;;
23716;SDS011;22094;52.130;5.598;2022-10-16T05:13:47;8.25;;;3.70;;
23716;SDS011;22094;52.130;5.598;2022-10-16T05:16:12;7.43;;;4.00;;
23716;SDS011;22094;52.130;5.598;2022-10-16T05:18:38;7.15;;;3.65;;
23716;SDS011;22094;52.130;5.598;2022-10-16T05:21:06;11.18;;;4.60;;
23716;SDS011;22094;52.130;5.598;2022-10-16T05:23:32;7.45;;;4.38;;
23716;SDS011;22094;52.130;5.598;2022-10-16T05:25:58;6.07;;;4.70;;
23716;SDS011;22094;52.130;5.598;2022-10-16T05:28:25;6.38;;;4.47;;
23716;SDS011;22094;52.130;5.598;2022-10-16T05:30:58;8.15;;;4.95;;
23716;SDS011;22094;52.130;5.598;2022-10-16T05:33:44;7.68;;;5.63;;
23716;SDS011;22094;52.130;5.598;2022-10-16T05:36:10;10.57;;;5.35;;
23716;SDS011;22094;52.130;5.598;2022-10-16T05:38:36;7.45;;;5.30;;
23716;SDS011;22094;52.130;5.598;2022-10-16T05:41:03;8.43;;;5.55;;
23716;SDS011;22094;52.130;5.598;2022-10-16T05:43:29;7.13;;;5.47;;
23716;SDS011;22094;52.130;5.598;2022-10-16T05:46:00;9.45;;;5.78;;
23716;SDS011;22094;52.130;5.598;2022-10-16T05:48:27;10.15;;;6.07;;
23716;SDS011;22094;52.130;5.598;2022-10-16T05:51:03;11.88;;;6.40;;
23716;SDS011;22094;52.130;5.598;2022-10-16T05:53:32;10.40;;;6.30;;
23716;SDS011;22094;52.130;5.598;2022-10-16T05:55:59;10.75;;;6.60;;
23716;SDS011;22094;52.130;5.598;2022-10-16T05:58:27;9.05;;;6.35;;
23716;SDS011;22094;52.130;5.598;2022-10-16T06:00:58;11.80;;;6.65;;
23716;SDS011;22094;52.130;5.598;2022-10-16T06:03:32;9.98;;;6.70;;
23716;SDS011;22094;52.130;5.598;2022-10-16T06:05:58;12.23;;;7.10;;
23716;SDS011;22094;52.130;5.598;2022-10-16T06:08:24;9.73;;;6.60;;
23716;SDS011;22094;52.130;5.598;2022-10-16T06:11:00;10.48;;;6.20;;
23716;SDS011;22094;52.130;5.598;2022-10-16T06:13:27;8.15;;;6.07;;
23716;SDS011;22094;52.130;5.598;2022-10-16T06:15:52;9.73;;;5.97;;
23716;SDS011;22094;52.130;5.598;2022-10-16T06:18:18;8.73;;;6.20;;
23716;SDS011;22094;52.130;5.598;2022-10-16T06:20:43;10.38;;;5.60;;
23716;SDS011;22094;52.130;5.598;2022-10-16T06:23:09;7.05;;;5.45;;
23716;SDS011;22094;52.130;5.598;2022-10-16T06:25:34;8.30;;;5.32;;
23716;SDS011;22094;52.130;5.598;2022-10-16T06:28:00;8.73;;;5.03;;
23716;SDS011;22094;52.130;5.598;2022-10-16T06:30:25;7.15;;;5.80;;
23716;SDS011;22094;52.130;5.598;2022-10-16T06:32:51;6.65;;;5.22;;
23716;SDS011;22094;52.130;5.598;2022-10-16T06:35:16;6.00;;;4.60;;
23716;SDS011;22094;52.130;5.598;2022-10-16T06:37:42;6.07;;;4.30;;
23716;SDS011;22094;52.130;5.598;2022-10-16T06:40:08;5.88;;;5.20;;
23716;SDS011;22094;52.130;5.598;2022-10-16T06:42:33;7.32;;;4.78;;
23716;SDS011;22094;52.130;5.598;2022-10-16T06:44:59;6.35;;;5.00;;
23716;SDS011;22094;52.130;5.598;2022-10-16T06:47:24;6.28;;;4.28;;
23716;SDS011;22094;52.130;5.598;2022-10-16T06:49:50;5.60;;;4.22;;
23716;SDS011;22094;52.130;5.598;2022-10-16T06:52:16;6.03;;;4.15;;
23716;SDS011;22094;52.130;5.598;2022-10-16T06:54:41;4.80;;;4.20;;
23716;SDS011;22094;52.130;5.598;2022-10-16T06:57:07;5.78;;;3.85;;
23716;SDS011;22094;52.130;5.598;2022-10-16T06:59:33;7.32;;;3.80;;
23716;SDS011;22094;52.130;5.598;2022-10-16T07:01:58;5.47;;;3.50;;
23716;SDS011;22094;52.130;5.598;2022-10-16T07:04:24;8.02;;;3.95;;
23716;SDS011;22094;52.130;5.598;2022-10-16T07:06:50;7.43;;;3.78;;
23716;SDS011;22094;52.130;5.598;2022-10-16T07:09:16;5.00;;;3.75;;
23716;SDS011;22094;52.130;5.598;2022-10-16T07:11:42;8.23;;;3.65;;
23716;SDS011;22094;52.130;5.598;2022-10-16T07:14:26;5.05;;;3.58;;
23716;SDS011;22094;52.130;5.598;2022-10-16T07:16:52;5.50;;;3.40;;
23716;SDS011;22094;52.130;5.598;2022-10-16T07:19:18;7.50;;;3.20;;
23716;SDS011;22094;52.130;5.598;2022-10-16T07:21:44;5.05;;;3.53;;
23716;SDS011;22094;52.130;5.598;2022-10-16T07:24:14;3.92;;;3.30;;
23716;SDS011;22094;52.130;5.598;2022-10-16T07:26:41;5.50;;;3.17;;
23716;SDS011;22094;52.130;5.598;2022-10-16T07:29:15;6.35;;;2.90;;
23716;SDS011;22094;52.130;5.598;2022-10-16T07:31:43;6.13;;;3.17;;
23716;SDS011;22094;52.130;5.598;2022-10-16T07:34:09;8.15;;;3.30;;
23716;SDS011;22094;52.130;5.598;2022-10-16T07:36:39;8.18;;;3.72;;
23716;SDS011;22094;52.130;5.598;2022-10-16T07:39:05;6.07;;;3.40;;
23716;SDS011;22094;52.130;5.598;2022-10-16T07:41:31;4.90;;;3.28;;
23716;SDS011;22094;52.130;5.598;2022-10-16T07:43:58;5.05;;;3.13;;
23716;SDS011;22094;52.130;5.598;2022-10-16T07:46:27;5.65;;;3.40;;
23716;SDS011;22094;52.130;5.598;2022-10-16T07:48:53;5.95;;;3.45;;
23716;SDS011;22094;52.130;5.598;2022-10-16T07:51:20;6.53;;;3.15;;
23716;SDS011;22094;52.130;5.598;2022-10-16T07:53:48;6.20;;;3.30;;
23716;SDS011;22094;52.130;5.598;2022-10-16T07:56:15;6.32;;;3.10;;
23716;SDS011;22094;52.130;5.598;2022-10-16T07:58:41;3.70;;;3.20;;
23716;SDS011;22094;52.130;5.598;2022-10-16T08:01:09;5.40;;;3.35;;
23716;SDS011;22094;52.130;5.598;2022-10-16T08:03:36;6.47;;;2.97;;
23716;SDS011;22094;52.130;5.598;2022-10-16T08:06:02;6.50;;;3.30;;
23716;SDS011;22094;52.130;5.598;2022-10-16T08:08:28;4.90;;;3.33;;
23716;SDS011;22094;52.130;5.598;2022-10-16T08:10:54;3.58;;;2.58;;
23716;SDS011;22094;52.130;5.598;2022-10-16T08:13:20;3.83;;;2.67;;
23716;SDS011;22094;52.130;5.598;2022-10-16T08:15:49;5.75;;;2.90;;
23716;SDS011;22094;52.130;5.598;2022-10-16T08:18:14;5.85;;;2.95;;
23716;SDS011;22094;52.130;5.598;2022-10-16T08:20:41;5.43;;;2.60;;
23716;SDS011;22094;52.130;5.598;2022-10-16T08:23:07;5.18;;;3.03;;
23716;SDS011;22094;52.130;5.598;2022-10-16T08:25:36;4.05;;;2.90;;
23716;SDS011;22094;52.130;5.598;2022-10-16T08:28:03;4.60;;;2.60;;
23716;SDS011;22094;52.130;5.598;2022-10-16T08:30:30;3.85;;;2.42;;
23716;SDS011;22094;52.130;5.598;2022-10-16T08:32:56;3.10;;;2.25;;
23716;SDS011;22094;52.130;5.598;2022-10-16T08:35:23;4.80;;;2.92;;
23716;SDS011;22094;52.130;5.598;2022-10-16T08:37:51;5.47;;;2.40;;
23716;SDS011;22094;52.130;5.598;2022-10-16T08:40:18;6.43;;;2.67;;
23716;SDS011;22094;52.130;5.598;2022-10-16T08:46:05;3.22;;;2.55;;
23716;SDS011;22094;52.130;5.598;2022-10-16T08:48:47;6.10;;;3.15;;
23716;SDS011;22094;52.130;5.598;2022-10-16T08:51:34;6.72;;;3.15;;
23716;SDS011;22094;52.130;5.598;2022-10-16T08:54:03;4.82;;;2.83;;
23716;SDS011;22094;52.130;5.598;2022-10-16T08:56:36;3.97;;;3.00;;
23716;SDS011;22094;52.130;5.598;2022-10-16T08:59:01;7.13;;;2.83;;
23716;SDS011;22094;52.130;5.598;2022-10-16T09:01:37;7.45;;;2.97;;
23716;SDS011;22094;52.130;5.598;2022-10-16T09:11:55;5.00;;;2.58;;
23716;SDS011;22094;52.130;5.598;2022-10-16T09:14:47;4.03;;;2.70;;
23716;SDS011;22094;52.130;5.598;2022-10-16T09:22:35;8.23;;;2.60;;
23716;SDS011;22094;52.130;5.598;2022-10-16T09:25:05;11.50;;;2.50;;
23716;SDS011;22094;52.130;5.598;2022-10-16T09:27:47;10.30;;;2.90;;
23716;SDS011;22094;52.130;5.598;2022-10-16T09:30:17;7.78;;;2.40;;
23716;SDS011;22094;52.130;5.598;2022-10-16T09:32:44;7.50;;;2.80;;
23716;SDS011;22094;52.130;5.598;2022-10-16T09:35:14;11.50;;;2.97;;
23716;SDS011;22094;52.130;5.598;2022-10-16T09:37:47;13.55;;;2.45;;
23716;SDS011;22094;52.130;5.598;2022-10-16T09:40:23;12.38;;;2.60;;
23716;SDS011;22094;52.130;5.598;2022-10-16T09:42:49;9.27;;;3.00;;
23716;SDS011;22094;52.130;5.598;2022-10-16T09:45:21;9.55;;;2.60;;
23716;SDS011;22094;52.130;5.598;2022-10-16T09:47:48;12.10;;;2.75;;
23716;SDS011;22094;52.130;5.598;2022-10-16T09:50:26;13.30;;;3.00;;
23716;SDS011;22094;52.130;5.598;2022-10-16T09:53:05;6.35;;;2.47;;
23716;SDS011;22094;52.130;5.598;2022-10-16T09:55:47;11.85;;;4.57;;
23716;SDS011;22094;52.130;5.598;2022-10-16T09:58:13;8.10;;;2.70;;
23716;SDS011;22094;52.130;5.598;2022-10-16T10:00:39;8.65;;;2.92;;
23716;SDS011;22094;52.130;5.598;2022-10-16T10:06:21;10.38;;;2.72;;
23716;SDS011;22094;52.130;5.598;2022-10-16T10:09:00;9.57;;;2.65;;
23716;SDS011;22094;52.130;5.598;2022-10-16T10:11:53;7.32;;;2.60;;
23716;SDS011;22094;52.130;5.598;2022-10-16T10:16:46;10.77;;;2.88;;
23716;SDS011;22094;52.130;5.598;2022-10-16T10:19:16;8.10;;;2.65;;
23716;SDS011;22094;52.130;5.598;2022-10-16T10:21:43;6.65;;;2.20;;
23716;SDS011;22094;52.130;5.598;2022-10-16T10:24:10;10.48;;;2.85;;
23716;SDS011;22094;52.130;5.598;2022-10-16T10:26:37;6.45;;;2.60;;
23716;SDS011;22094;52.130;5.598;2022-10-16T10:29:16;8.43;;;2.72;;
23716;SDS011;22094;52.130;5.598;2022-10-16T10:45:27;8.43;;;2.35;;
23716;SDS011;22094;52.130;5.598;2022-10-16T10:47:59;9.60;;;2.53;;
23716;SDS011;22094;52.130;5.598;2022-10-16T10:50:38;7.68;;;2.25;;
23716;SDS011;22094;52.130;5.598;2022-10-16T10:53:30;9.48;;;2.47;;
23716;SDS011;22094;52.130;5.598;2022-10-16T10:59:32;6.82;;;2.20;;
23716;SDS011;22094;52.130;5.598;2022-10-16T11:04:55;8.77;;;2.67;;
23716;SDS011;22094;52.130;5.598;2022-10-16T11:08:30;10.80;;;2.00;;
23716;SDS011;22094;52.130;5.598;2022-10-16T11:11:06;9.27;;;2.40;;
23716;SDS011;22094;52.130;5.598;2022-10-16T11:13:54;11.18;;;2.25;;
23716;SDS011;22094;52.130;5.598;2022-10-16T11:16:28;9.70;;;2.50;;
23716;SDS011;22094;52.130;5.598;2022-10-16T11:27:39;8.30;;;2.30;;
23716;SDS011;22094;52.130;5.598;2022-10-16T11:30:18;8.02;;;2.10;;
23716;SDS011;22094;52.130;5.598;2022-10-16T11:40:47;9.98;;;2.50;;
23716;SDS011;22094;52.130;5.598;2022-10-16T11:43:19;10.45;;;2.15;;
23716;SDS011;22094;52.130;5.598;2022-10-16T11:45:57;7.13;;;1.90;;
23716;SDS011;22094;52.130;5.598;2022-10-16T11:51:35;7.80;;;1.90;;
23716;SDS011;22094;52.130;5.598;2022-10-16T11:56:55;8.80;;;2.15;;
23716;SDS011;22094;52.130;5.598;2022-10-16T11:59:26;6.70;;;1.55;;
23716;SDS011;22094;52.130;5.598;2022-10-16T12:05:06;5.18;;;1.40;;
23716;SDS011;22094;52.130;5.598;2022-10-16T12:10:23;6.88;;;1.90;;
23716;SDS011;22094;52.130;5.598;2022-10-16T12:12:50;7.95;;;2.10;;
23716;SDS011;22094;52.130;5.598;2022-10-16T12:15:20;6.05;;;2.10;;
23716;SDS011;22094;52.130;5.598;2022-10-16T12:17:50;7.07;;;2.03;;
23716;SDS011;22094;52.130;5.598;2022-10-16T12:25:26;6.53;;;2.05;;
23716;SDS011;22094;52.130;5.598;2022-10-16T12:28:04;9.57;;;2.28;;
23716;SDS011;22094;52.130;5.598;2022-10-16T12:30:41;7.68;;;1.65;;
23716;SDS011;22094;52.130;5.598;2022-10-16T12:33:22;6.35;;;1.90;;
23716;SDS011;22094;52.130;5.598;2022-10-16T12:35:49;7.20;;;1.67;;
23716;SDS011;22094;52.130;5.598;2022-10-16T12:38:20;8.98;;;1.60;;
23716;SDS011;22094;52.130;5.598;2022-10-16T12:43:34;5.90;;;1.60;;
23716;SDS011;22094;52.130;5.598;2022-10-16T12:46:18;9.35;;;2.20;;
23716;SDS011;22094;52.130;5.598;2022-10-16T12:49:06;5.72;;;1.40;;
23716;SDS011;22094;52.130;5.598;2022-10-16T12:51:38;10.05;;;1.83;;
23716;SDS011;22094;52.130;5.598;2022-10-16T12:54:14;6.07;;;1.70;;
23716;SDS011;22094;52.130;5.598;2022-10-16T13:01:48;9.70;;;2.00;;
23716;SDS011;22094;52.130;5.598;2022-10-16T13:04:21;7.13;;;1.65;;
23716;SDS011;22094;52.130;5.598;2022-10-16T13:07:27;9.80;;;1.90;;
23716;SDS011;22094;52.130;5.598;2022-10-16T13:10:02;8.02;;;2.03;;
23716;SDS011;22094;52.130;5.598;2022-10-16T13:15:09;8.63;;;2.22;;
23716;SDS011;22094;52.130;5.598;2022-10-16T13:26:00;7.00;;;2.25;;
23716;SDS011;22094;52.130;5.598;2022-10-16T13:28:46;6.63;;;1.92;;
23716;SDS011;22094;52.130;5.598;2022-10-16T13:31:17;7.30;;;2.03;;
23716;SDS011;22094;52.130;5.598;2022-10-16T13:33:48;7.45;;;1.90;;
23716;SDS011;22094;52.130;5.598;2022-10-16T13:36:22;11.93;;;2.40;;
23716;SDS011;22094;52.130;5.598;2022-10-16T13:38:57;10.27;;;2.25;;
23716;SDS011;22094;52.130;5.598;2022-10-16T13:41:45;6.65;;;1.83;;
23716;SDS011;22094;52.130;5.598;2022-10-16T13:44:13;11.10;;;2.35;;
23716;SDS011;22094;52.130;5.598;2022-10-16T13:46:43;8.35;;;2.17;;
23716;SDS011;22094;52.130;5.598;2022-10-16T13:49:14;9.65;;;2.10;;
23716;SDS011;22094;52.130;5.598;2022-10-16T13:51:41;10.23;;;2.10;;
23716;SDS011;22094;52.130;5.598;2022-10-16T13:54:09;8.63;;;2.08;;
23716;SDS011;22094;52.130;5.598;2022-10-16T13:56:36;10.77;;;2.50;;
23716;SDS011;22094;52.130;5.598;2022-10-16T13:59:03;9.98;;;2.00;;
23716;SDS011;22094;52.130;5.598;2022-10-16T14:04:00;12.50;;;2.30;;
23716;SDS011;22094;52.130;5.598;2022-10-16T14:06:31;10.80;;;2.22;;
23716;SDS011;22094;52.130;5.598;2022-10-16T14:09:07;10.85;;;1.92;;
23716;SDS011;22094;52.130;5.598;2022-10-16T14:11:46;9.20;;;2.28;;
23716;SDS011;22094;52.130;5.598;2022-10-16T14:14:16;9.55;;;2.65;;
23716;SDS011;22094;52.130;5.598;2022-10-16T14:16:42;7.55;;;2.10;;
23716;SDS011;22094;52.130;5.598;2022-10-16T14:19:21;11.43;;;2.65;;
23716;SDS011;22094;52.130;5.598;2022-10-16T14:22:11;10.50;;;2.00;;
23716;SDS011;22094;52.130;5.598;2022-10-16T14:24:51;9.07;;;2.40;;
23716;SDS011;22094;52.130;5.598;2022-10-16T14:27:36;7.93;;;2.05;;
23716;SDS011;22094;52.130;5.598;2022-10-16T14:30:08;8.73;;;2.22;;
23716;SDS011;22094;52.130;5.598;2022-10-16T14:32:52;11.98;;;2.40;;
23716;SDS011;22094;52.130;5.598;2022-10-16T14:35:23;9.90;;;1.95;;
23716;SDS011;22094;52.130;5.598;2022-10-16T14:37:51;13.70;;;2.47;;
23716;SDS011;22094;52.130;5.598;2022-10-16T14:40:18;11.18;;;2.35;;
23716;SDS011;22094;52.130;5.598;2022-10-16T14:42:44;8.98;;;2.25;;
23716;SDS011;22094;52.130;5.598;2022-10-16T14:45:11;13.85;;;2.58;;
23716;SDS011;22094;52.130;5.598;2022-10-16T14:47:37;12.55;;;2.40;;
23716;SDS011;22094;52.130;5.598;2022-10-16T14:50:13;7.28;;;2.15;;
23716;SDS011;22094;52.130;5.598;2022-10-16T14:52:39;9.75;;;2.22;;
23716;SDS011;22094;52.130;5.598;2022-10-16T14:55:05;8.48;;;1.88;;
23716;SDS011;22094;52.130;5.598;2022-10-16T14:57:31;5.82;;;1.30;;
23716;SDS011;22094;52.130;5.598;2022-10-16T15:00:00;10.82;;;2.10;;
23716;SDS011;22094;52.130;5.598;2022-10-16T15:02:28;10.35;;;2.45;;
23716;SDS011;22094;52.130;5.598;2022-10-16T15:04:56;11.35;;;2.80;;
23716;SDS011;22094;52.130;5.598;2022-10-16T15:07:22;13.13;;;2.67;;
23716;SDS011;22094;52.130;5.598;2022-10-16T15:09:48;12.98;;;2.50;;
23716;SDS011;22094;52.130;5.598;2022-10-16T15:12:14;8.40;;;2.25;;
23716;SDS011;22094;52.130;5.598;2022-10-16T15:14:40;8.73;;;2.30;;
23716;SDS011;22094;52.130;5.598;2022-10-16T15:17:10;10.43;;;2.15;;
23716;SDS011;22094;52.130;5.598;2022-10-16T15:19:36;9.75;;;2.38;;
23716;SDS011;22094;52.130;5.598;2022-10-16T15:22:02;7.93;;;2.30;;
23716;SDS011;22094;52.130;5.598;2022-10-16T15:24:28;11.15;;;2.33;;
23716;SDS011;22094;52.130;5.598;2022-10-16T15:26:56;9.73;;;2.17;;
23716;SDS011;22094;52.130;5.598;2022-10-16T15:29:22;9.13;;;2.42;;
23716;SDS011;22094;52.130;5.598;2022-10-16T15:31:48;9.30;;;2.13;;
23716;SDS011;22094;52.130;5.598;2022-10-16T15:34:15;8.82;;;2.13;;
23716;SDS011;22094;52.130;5.598;2022-10-16T15:36:43;10.13;;;2.05;;
23716;SDS011;22094;52.130;5.598;2022-10-16T15:39:13;12.07;;;2.65;;
23716;SDS011;22094;52.130;5.598;2022-10-16T15:41:41;10.70;;;3.00;;
23716;SDS011;22094;52.130;5.598;2022-10-16T15:44:07;9.43;;;2.72;;
23716;SDS011;22094;52.130;5.598;2022-10-16T15:46:33;8.57;;;2.55;;
23716;SDS011;22094;52.130;5.598;2022-10-16T15:49:00;12.80;;;2.83;;
23716;SDS011;22094;52.130;5.598;2022-10-16T15:51:26;12.02;;;2.53;;
23716;SDS011;22094;52.130;5.598;2022-10-16T15:53:57;10.50;;;2.80;;
23716;SDS011;22094;52.130;5.598;2022-10-16T15:56:24;10.05;;;2.40;;
23716;SDS011;22094;52.130;5.598;2022-10-16T15:58:51;10.68;;;3.20;;
23716;SDS011;22094;52.130;5.598;2022-10-16T16:01:17;11.57;;;2.80;;
23716;SDS011;22094;52.130;5.598;2022-10-16T16:03:43;11.73;;;2.78;;
23716;SDS011;22094;52.130;5.598;2022-10-16T16:06:10;13.07;;;2.92;;
23716;SDS011;22094;52.130;5.598;2022-10-16T16:08:37;14.85;;;2.72;;
23716;SDS011;22094;52.130;5.598;2022-10-16T16:11:04;10.00;;;2.67;;
23716;SDS011;22094;52.130;5.598;2022-10-16T16:13:32;9.35;;;2.47;;
23716;SDS011;22094;52.130;5.598;2022-10-16T16:15:58;12.93;;;3.10;;
23716;SDS011;22094;52.130;5.598;2022-10-16T16:18:24;12.32;;;3.38;;
23716;SDS011;22094;52.130;5.598;2022-10-16T16:20:50;15.05;;;3.75;;
23716;SDS011;22094;52.130;5.598;2022-10-16T16:23:17;10.68;;;3.50;;
23716;SDS011;22094;52.130;5.598;2022-10-16T16:25:44;12.98;;;4.75;;
23716;SDS011;22094;52.130;5.598;2022-10-16T16:28:09;14.05;;;4.85;;
23716;SDS011;22094;52.130;5.598;2022-10-16T16:30:39;16.73;;;6.82;;
23716;SDS011;22094;52.130;5.598;2022-10-16T16:33:05;17.65;;;4.82;;
23716;SDS011;22094;52.130;5.598;2022-10-16T16:35:30;13.05;;;3.83;;
23716;SDS011;22094;52.130;5.598;2022-10-16T16:37:56;14.18;;;4.13;;
23716;SDS011;22094;52.130;5.598;2022-10-16T16:40:21;19.02;;;4.70;;
23716;SDS011;22094;52.130;5.598;2022-10-16T16:42:48;15.90;;;5.53;;
23716;SDS011;22094;52.130;5.598;2022-10-16T16:45:14;18.00;;;7.28;;
23716;SDS011;22094;52.130;5.598;2022-10-16T16:47:39;15.15;;;6.45;;